Time;durP1;ratioP1;P1;durP2;ratioP2;P2;SDS_P1;SDS_P2;PMS_P1;PMS_P2;Temp;Humidity;BMP_temperature;BMP_pressure;BME280_temperature;BME280_humidity;BME280_pressure;Samples;Min_cycle;Max_cycle;Signal;HPM_P1;HPM_P2
2022/02/27 00:02:22;;;;;;;8.25;2.65;;;;;;;1.61;100.00;103582.66;10080105;28;20657;-66
2022/02/27 00:07:19;;;;;;;7.68;2.40;;;;;;;1.60;100.00;103597.13;10087563;28;20556;-68
2022/02/27 00:12:15;;;;;;;5.00;2.28;;;;;;;1.59;100.00;103595.47;10094041;28;20110;-67
2022/02/27 00:17:12;;;;;;;7.78;2.42;;;;;;;1.47;100.00;103604.03;10090919;28;20481;-67
2022/02/27 00:22:09;;;;;;;8.32;3.22;;;;;;;1.43;100.00;103605.41;10097143;28;20144;-67
2022/02/27 00:27:05;;;;;;;6.43;2.45;;;;;;;1.39;100.00;103596.06;10082417;28;20043;-67
2022/02/27 00:32:02;;;;;;;7.68;2.92;;;;;;;1.31;100.00;103598.00;10092852;28;20152;-67
2022/02/27 00:36:58;;;;;;;6.47;2.65;;;;;;;1.22;100.00;103594.53;10100798;28;20093;-67
2022/02/27 00:41:55;;;;;;;6.40;2.13;;;;;;;1.19;100.00;103589.53;10079587;28;20502;-67
2022/02/27 00:46:51;;;;;;;8.65;3.25;;;;;;;1.17;100.00;103586.19;10076631;28;20078;-68
2022/02/27 00:51:50;;;;;;;8.15;2.75;;;;;;;1.10;100.00;103585.25;10080880;28;20047;-68
2022/02/27 00:56:47;;;;;;;7.70;2.67;;;;;;;1.03;100.00;103591.34;10086934;28;20043;-68
2022/02/27 01:01:43;;;;;;;6.88;2.60;;;;;;;0.96;100.00;103595.81;10090081;28;20047;-68
2022/02/27 01:06:40;;;;;;;8.10;2.92;;;;;;;0.96;100.00;103598.50;10078869;28;20051;-68
2022/02/27 01:11:37;;;;;;;10.55;3.78;;;;;;;0.86;100.00;103603.31;10084845;28;20045;-69
2022/02/27 01:16:33;;;;;;;9.82;3.25;;;;;;;0.89;100.00;103600.25;10085555;28;20076;-68
2022/02/27 01:21:30;;;;;;;6.30;2.72;;;;;;;0.88;100.00;103612.03;10082401;28;20054;-68
2022/02/27 01:26:27;;;;;;;7.00;3.33;;;;;;;0.83;100.00;103606.34;10076189;28;20074;-68
2022/02/27 01:31:23;;;;;;;7.68;2.78;;;;;;;0.74;100.00;103602.06;10086148;28;20086;-69
2022/02/27 01:36:20;;;;;;;8.02;3.50;;;;;;;0.76;100.00;103617.00;10078022;28;20109;-68
2022/02/27 01:41:16;;;;;;;10.52;3.70;;;;;;;0.71;100.00;103610.50;10083788;28;20456;-68
2022/02/27 01:46:16;;;;;;;7.63;2.67;;;;;;;0.65;100.00;103613.91;10075415;28;20101;-68
2022/02/27 01:51:13;;;;;;;7.55;3.25;;;;;;;0.61;100.00;103608.91;10088562;28;20130;-68
2022/02/27 01:56:09;;;;;;;8.77;2.88;;;;;;;0.66;100.00;103604.81;10076054;28;20131;-67
2022/02/27 02:01:06;;;;;;;8.50;3.05;;;;;;;0.55;100.00;103609.59;10081236;28;20094;-68
2022/02/27 02:06:03;;;;;;;6.65;2.83;;;;;;;0.55;100.00;103606.06;10075278;28;20520;-68
2022/02/27 02:10:59;;;;;;;7.95;3.05;;;;;;;0.49;100.00;103604.09;10077742;28;20078;-68
2022/02/27 02:15:57;;;;;;;7.10;3.03;;;;;;;0.47;100.00;103606.16;10084986;28;20118;-68
2022/02/27 02:20:54;;;;;;;8.55;2.88;;;;;;;0.43;100.00;103613.72;10075518;28;20118;-67
2022/02/27 02:25:50;;;;;;;9.73;3.50;;;;;;;0.37;100.00;103611.75;10080976;28;20093;-67
2022/02/27 02:30:47;;;;;;;8.02;2.85;;;;;;;0.41;100.00;103613.91;10084849;28;20105;-68
2022/02/27 02:35:45;;;;;;;9.98;3.38;;;;;;;0.28;100.00;103607.44;10090294;28;20513;-67
2022/02/27 02:40:41;;;;;;;8.02;3.58;;;;;;;0.32;100.00;103614.13;10073519;28;20094;-68
2022/02/27 02:45:38;;;;;;;7.57;3.15;;;;;;;0.26;100.00;103604.09;10083288;28;20043;-68
2022/02/27 02:50:34;;;;;;;6.47;2.67;;;;;;;0.27;100.00;103600.38;10078738;28;20053;-68
2022/02/27 02:55:31;;;;;;;6.20;2.70;;;;;;;0.32;100.00;103608.75;10082862;28;20065;-68
2022/02/27 03:00:28;;;;;;;6.43;2.70;;;;;;;0.35;100.00;103608.41;10081303;28;20535;-68
2022/02/27 03:05:24;;;;;;;10.25;3.22;;;;;;;0.29;100.00;103611.81;10079954;28;20450;-68
2022/02/27 03:10:21;;;;;;;8.27;2.42;;;;;;;0.26;100.00;103614.88;10081136;28;22296;-68
2022/02/27 03:15:18;;;;;;;6.68;2.40;;;;;;;0.22;100.00;103614.38;10079496;28;20449;-68
2022/02/27 03:20:14;;;;;;;7.88;2.88;;;;;;;0.18;100.00;103607.66;10080462;28;20413;-68
2022/02/27 03:25:11;;;;;;;7.03;2.90;;;;;;;0.12;100.00;103611.09;10079451;28;20094;-68
2022/02/27 03:30:08;;;;;;;9.10;3.80;;;;;;;0.11;100.00;103602.16;10109717;28;20055;-67
2022/02/27 03:35:05;;;;;;;7.78;3.03;;;;;;;0.10;100.00;103605.03;10078745;28;20094;-68
2022/02/27 03:40:01;;;;;;;7.75;2.50;;;;;;;0.01;100.00;103609.63;10079973;28;20481;-68
2022/02/27 03:44:58;;;;;;;8.27;2.92;;;;;;;0.02;100.00;103613.13;10087076;28;20049;-67
2022/02/27 03:49:54;;;;;;;7.63;2.67;;;;;;;0.00;100.00;103610.66;10084689;28;20051;-68
2022/02/27 03:54:51;;;;;;;12.05;3.28;;;;;;;-0.04;100.00;103604.75;10085179;28;20838;-68
2022/02/27 03:59:47;;;;;;;9.35;2.80;;;;;;;-0.06;100.00;103608.66;10086629;28;20047;-68
2022/02/27 04:04:44;;;;;;;7.30;2.42;;;;;;;-0.10;100.00;103610.84;10085397;28;20047;-67
2022/02/27 04:09:41;;;;;;;10.63;2.70;;;;;;;-0.11;100.00;103608.34;10077296;28;20060;-68
2022/02/27 04:14:38;;;;;;;7.07;3.13;;;;;;;-0.15;100.00;103607.84;10087785;28;20039;-68
2022/02/27 04:19:35;;;;;;;10.35;2.92;;;;;;;-0.07;100.00;103610.50;10080233;28;20071;-68
2022/02/27 04:24:32;;;;;;;6.93;3.30;;;;;;;-0.15;100.00;103604.31;10077053;28;20156;-68
2022/02/27 04:29:28;;;;;;;9.65;3.00;;;;;;;-0.12;100.00;103607.47;10077445;28;20051;-67
2022/02/27 04:34:25;;;;;;;8.43;2.88;;;;;;;-0.17;100.00;103609.84;10078821;28;20109;-68
2022/02/27 04:39:21;;;;;;;8.85;2.95;;;;;;;-0.14;100.00;103614.06;10076943;28;20086;-68
2022/02/27 04:44:18;;;;;;;6.10;2.85;;;;;;;-0.15;100.00;103604.31;10078647;28;20805;-68
2022/02/27 04:49:14;;;;;;;8.75;3.10;;;;;;;-0.24;100.00;103612.41;10076685;28;20497;-68
2022/02/27 04:54:11;;;;;;;7.15;3.03;;;;;;;-0.24;100.00;103595.44;10074962;28;20135;-68
2022/02/27 04:59:07;;;;;;;8.05;2.40;;;;;;;-0.28;100.00;103603.03;10076410;28;20106;-68
2022/02/27 05:04:04;;;;;;;8.73;3.17;;;;;;;-0.28;100.00;103597.66;10088395;28;20047;-68
2022/02/27 05:09:01;;;;;;;9.23;3.05;;;;;;;-0.35;100.00;103604.72;10106093;28;20085;-67
2022/02/27 05:13:57;;;;;;;9.43;2.85;;;;;;;-0.36;100.00;103621.03;10089711;28;20134;-68
2022/02/27 05:18:54;;;;;;;7.97;2.65;;;;;;;-0.33;100.00;103626.91;10106919;28;20051;-68
2022/02/27 05:23:50;;;;;;;8.73;3.42;;;;;;;-0.34;100.00;103627.91;10083629;28;20039;-68
2022/02/27 05:28:47;;;;;;;7.60;2.85;;;;;;;-0.46;100.00;103619.38;10100166;28;20047;-68
2022/02/27 05:33:43;;;;;;;7.55;3.00;;;;;;;-0.47;100.00;103617.69;10077107;28;20073;-67
2022/02/27 05:38:40;;;;;;;11.05;2.92;;;;;;;-0.48;100.00;103628.63;10074917;28;20421;-68
2022/02/27 05:43:36;;;;;;;7.85;3.03;;;;;;;-0.52;100.00;103638.06;10071566;28;20066;-68
2022/02/27 05:48:32;;;;;;;8.07;2.63;;;;;;;-0.52;100.00;103643.44;10073369;28;20125;-68
2022/02/27 05:53:29;;;;;;;7.68;2.78;;;;;;;-0.57;100.00;103651.16;10073554;28;20126;-68
2022/02/27 05:58:26;;;;;;;9.68;3.00;;;;;;;-0.54;100.00;103661.56;10073420;28;20146;-68
2022/02/27 06:03:23;;;;;;;7.72;3.22;;;;;;;-0.58;100.00;103652.16;10073159;28;20088;-68
2022/02/27 06:08:20;;;;;;;6.35;2.80;;;;;;;-0.52;100.00;103648.81;10073102;28;20130;-67
2022/02/27 06:13:16;;;;;;;8.43;3.20;;;;;;;-0.55;100.00;103643.78;10074756;28;20082;-68
2022/02/27 06:18:13;;;;;;;8.82;2.70;;;;;;;-0.59;100.00;103647.81;10087103;28;20541;-68
2022/02/27 06:23:11;;;;;;;8.95;3.17;;;;;;;-0.65;100.00;103655.56;10072929;28;20098;-68
2022/02/27 06:28:07;;;;;;;6.50;3.28;;;;;;;-0.60;100.00;103660.41;10073006;28;20110;-66
2022/02/27 06:33:04;;;;;;;8.82;3.25;;;;;;;-0.67;100.00;103673.69;10073261;28;20503;-67
2022/02/27 06:38:00;;;;;;;9.65;3.40;;;;;;;-0.60;100.00;103662.25;10073312;28;20043;-67
2022/02/27 06:43:03;;;;;;;8.43;3.30;;;;;;;-0.55;100.00;103659.91;10087969;28;20158;-67
2022/02/27 06:47:59;;;;;;;9.52;4.00;;;;;;;-0.53;100.00;103679.41;10103664;28;20501;-67
2022/02/27 06:52:56;;;;;;;8.75;3.35;;;;;;;-0.49;100.00;103667.25;10072632;28;20039;-67
2022/02/27 06:57:52;;;;;;;9.40;3.10;;;;;;;-0.52;100.00;103686.44;10106240;28;20084;-67
2022/02/27 07:02:49;;;;;;;10.13;3.42;;;;;;;-0.54;100.00;103683.06;10099174;28;20067;-67
2022/02/27 07:07:46;;;;;;;9.45;2.90;;;;;;;-0.47;100.00;103694.81;10095381;28;20059;-67
2022/02/27 07:12:46;;;;;;;9.68;2.63;;;;;;;-0.43;100.00;103696.16;10112012;28;20051;-67
2022/02/27 07:17:42;;;;;;;11.50;3.58;;;;;;;-0.36;100.00;103696.31;10079183;28;20043;-67
2022/02/27 07:22:39;;;;;;;6.70;2.97;;;;;;;-0.35;100.00;103703.38;10072485;28;20476;-67
2022/02/27 07:27:36;;;;;;;9.57;3.28;;;;;;;-0.32;100.00;103693.13;10073879;28;20047;-68
2022/02/27 07:32:33;;;;;;;7.70;2.97;;;;;;;-0.27;100.00;103701.50;10080008;28;20044;-68
2022/02/27 07:37:30;;;;;;;10.68;3.05;;;;;;;-0.22;100.00;103693.75;10079086;28;20051;-68
2022/02/27 07:42:26;;;;;;;8.00;2.83;;;;;;;-0.15;100.00;103701.13;10079231;28;20134;-67
2022/02/27 07:47:23;;;;;;;9.40;3.60;;;;;;;-0.06;100.00;103703.63;10078887;28;20106;-68
2022/02/27 07:52:20;;;;;;;10.00;3.35;;;;;;;0.05;100.00;103705.09;10079506;28;20043;-67
2022/02/27 07:57:16;;;;;;;15.25;4.00;;;;;;;0.16;100.00;103702.03;10077393;28;20102;-68
2022/02/27 08:02:13;;;;;;;10.98;4.15;;;;;;;0.23;100.00;103712.09;10093934;28;20051;-68
2022/02/27 08:07:09;;;;;;;9.35;3.75;;;;;;;0.26;100.00;103706.38;10077601;28;20057;-66
2022/02/27 08:12:06;;;;;;;12.15;4.30;;;;;;;0.37;100.00;103706.81;10078936;28;20043;-66
2022/02/27 08:17:03;;;;;;;10.85;4.57;;;;;;;0.38;100.00;103702.28;10079760;28;20118;-67
2022/02/27 08:22:02;;;;;;;9.02;3.97;;;;;;;0.55;100.00;103706.53;10078207;28;20506;-67
2022/02/27 08:26:59;;;;;;;14.75;5.90;;;;;;;0.75;100.00;103698.00;10076753;28;20134;-68
2022/02/27 08:31:55;;;;;;;9.52;4.05;;;;;;;0.85;100.00;103706.69;10078006;28;20496;-68
2022/02/27 08:36:52;;;;;;;14.02;4.20;;;;;;;1.07;100.00;103714.94;10078753;28;20407;-68
2022/02/27 08:41:48;;;;;;;17.23;5.60;;;;;;;1.18;100.00;103711.81;10091154;28;20063;-69
2022/02/27 08:46:44;;;;;;;13.57;5.60;;;;;;;1.24;100.00;103700.31;10077480;28;20079;-68
2022/02/27 08:51:45;;;;;;;10.50;4.45;;;;;;;1.38;100.00;103695.97;10077273;28;20066;-68
2022/02/27 08:56:42;;;;;;;10.48;4.43;;;;;;;1.62;100.00;103705.69;10074990;28;20110;-69
2022/02/27 09:01:38;;;;;;;13.82;5.10;;;;;;;1.86;100.00;103702.72;10082259;28;20097;-68
2022/02/27 09:06:35;;;;;;;9.75;4.57;;;;;;;2.13;100.00;103700.38;10077704;28;20043;-68
2022/02/27 09:11:31;;;;;;;9.80;4.53;;;;;;;2.46;100.00;103694.53;10079293;28;20093;-68
2022/02/27 09:16:28;;;;;;;11.35;4.97;;;;;;;2.69;100.00;103692.53;10076291;28;20572;-69
2022/02/27 09:21:28;;;;;;;10.75;3.90;;;;;;;2.84;100.00;103692.47;10076247;28;20062;-68
2022/02/27 09:26:24;;;;;;;8.57;4.43;;;;;;;3.12;100.00;103692.50;10075130;28;20134;-68
2022/02/27 09:31:28;;;;;;;13.13;4.35;;;;;;;3.30;100.00;103691.22;10067306;28;20047;-66
2022/02/27 09:36:26;;;;;;;10.77;4.53;;;;;;;3.68;100.00;103682.72;10078224;28;20173;-67
2022/02/27 09:41:23;;;;;;;8.63;4.25;;;;;;;4.03;100.00;103691.66;10078755;28;20047;-66
2022/02/27 09:46:21;;;;;;;10.45;4.43;;;;;;;4.14;100.00;103684.84;10081621;28;20479;-66
2022/02/27 09:51:19;;;;;;;20.50;4.60;;;;;;;4.52;100.00;103682.47;10072354;28;20054;-67
2022/02/27 09:56:16;;;;;;;17.15;5.97;;;;;;;4.66;100.00;103680.63;10077328;28;20464;-66
2022/02/27 10:01:14;;;;;;;10.77;4.15;;;;;;;4.99;100.00;103679.84;10081389;28;20047;-66
2022/02/27 10:06:17;;;;;;;11.55;4.13;;;;;;;4.89;100.00;103671.28;10080830;28;20047;-67
2022/02/27 10:11:19;;;;;;;12.37;4.17;;;;;;;5.37;100.00;103671.09;10072099;28;20074;-66
2022/02/27 10:16:21;;;;;;;10.93;3.85;;;;;;;5.95;100.00;103670.38;10081246;28;20050;-66
2022/02/27 10:21:30;;;;;;;14.15;5.97;;;;;;;6.18;100.00;103678.00;10069768;28;20062;-67
2022/02/27 10:26:48;;;;;;;12.35;4.28;;;;;;;6.27;100.00;103671.28;10076920;28;20047;-66
2022/02/27 10:31:48;;;;;;;12.90;4.03;;;;;;;6.28;100.00;103672.94;10084580;28;20527;-65
2022/02/27 10:36:53;;;;;;;9.88;4.13;;;;;;;5.92;100.00;103677.03;10085909;28;20059;-66
2022/02/27 10:41:52;;;;;;;11.90;4.05;;;;;;;6.21;100.00;103672.97;10080837;28;20655;-66
2022/02/27 10:47:07;;;;;;;11.52;3.85;;;;;;;6.41;100.00;103672.88;10080834;28;20047;-67
2022/02/27 10:52:11;;;;;;;9.63;3.47;;;;;;;6.50;100.00;103668.03;10087440;28;20047;-66
2022/02/27 10:57:25;;;;;;;10.90;3.50;;;;;;;6.70;100.00;103670.59;10073353;28;20063;-66
2022/02/27 11:02:24;;;;;;;9.23;3.53;;;;;;;7.03;100.00;103658.63;10081150;28;20079;-67
2022/02/27 11:07:21;;;;;;;9.80;4.07;;;;;;;7.07;100.00;103670.75;10077276;28;20613;-66
2022/02/27 11:12:20;;;;;;;9.18;3.58;;;;;;;7.23;100.00;103670.19;10081683;28;20521;-66
2022/02/27 11:17:16;;;;;;;12.68;3.33;;;;;;;7.53;100.00;103653.16;10084663;28;20497;-67
2022/02/27 11:22:15;;;;;;;12.23;4.53;;;;;;;7.30;100.00;103643.75;10081319;28;20066;-66
2022/02/27 11:27:15;;;;;;;9.10;2.80;;;;;;;7.36;100.00;103631.97;10084889;28;20114;-65
2022/02/27 11:32:12;;;;;;;10.50;2.67;;;;;;;7.46;100.00;103636.88;10079376;28;20448;-66
2022/02/27 11:37:09;;;;;;;6.68;2.88;;;;;;;7.33;100.00;103632.44;10077650;28;20055;-67
2022/02/27 11:42:05;;;;;;;7.95;2.35;;;;;;;7.76;100.00;103631.53;10097697;28;20564;-66
2022/02/27 11:47:05;;;;;;;7.95;2.35;;;;;;;7.88;100.00;103617.97;10093052;28;20054;-66
2022/02/27 11:52:06;;;;;;;10.52;2.60;;;;;;;8.19;100.00;103625.13;10102986;28;20113;-70
2022/02/27 11:57:20;;;;;;;5.35;1.90;;;;;;;8.27;100.00;103614.97;10095729;28;20494;-67
2022/02/27 12:02:34;;;;;;;6.10;1.83;;;;;;;8.09;100.00;103613.94;10092102;28;20570;-67
2022/02/27 12:07:59;;;;;;;5.77;2.33;;;;;;;8.26;100.00;103603.22;10090660;28;20447;-67
2022/02/27 12:12:56;;;;;;;7.25;2.30;;;;;;;8.40;100.00;103598.44;10095037;28;20055;-65
2022/02/27 12:17:52;;;;;;;7.03;1.83;;;;;;;8.66;99.38;103590.91;10084981;28;20089;-65
2022/02/27 12:22:48;;;;;;;7.07;1.90;;;;;;;8.88;95.81;103594.72;10090995;28;20068;-64
2022/02/27 12:27:45;;;;;;;7.38;2.25;;;;;;;9.15;92.67;103583.38;10090123;28;20062;-64
2022/02/27 12:32:42;;;;;;;8.60;2.40;;;;;;;9.55;85.78;103566.19;10097239;28;20104;-64
2022/02/27 12:37:38;;;;;;;6.68;2.00;;;;;;;10.53;85.33;103564.25;10085213;28;20051;-64
2022/02/27 12:42:35;;;;;;;6.68;2.58;;;;;;;10.67;76.27;103560.09;10089006;28;20075;-64
2022/02/27 12:47:32;;;;;;;6.07;2.22;;;;;;;11.55;68.72;103563.00;10091011;28;20093;-67
2022/02/27 12:52:32;;;;;;;9.65;3.25;;;;;;;12.53;64.06;103539.34;10077569;28;20085;-67
2022/02/27 12:57:39;;;;;;;6.60;2.30;;;;;;;13.32;58.36;103540.41;10084614;28;20130;-67
2022/02/27 13:02:35;;;;;;;8.63;2.67;;;;;;;13.08;49.73;103535.31;10087809;28;20141;-67
2022/02/27 13:07:32;;;;;;;6.95;3.03;;;;;;;13.59;50.41;103534.75;10086631;28;20082;-67
2022/02/27 13:12:30;;;;;;;11.43;4.05;;;;;;;13.59;49.14;103530.09;10083123;28;20047;-68
2022/02/27 13:17:27;;;;;;;9.23;3.63;;;;;;;13.95;46.41;103521.09;10094851;28;20118;-67
2022/02/27 13:22:27;;;;;;;10.02;3.35;;;;;;;14.22;46.66;103526.34;10097316;28;20142;-67
2022/02/27 13:27:28;;;;;;;9.48;3.63;;;;;;;14.11;47.02;103525.53;10090621;28;20059;-67
2022/02/27 13:32:31;;;;;;;10.55;4.22;;;;;;;14.14;45.61;103513.16;10082730;28;20155;-67
2022/02/27 13:37:30;;;;;;;15.95;6.07;;;;;;;14.58;45.76;103513.44;10080500;28;20062;-68
2022/02/27 13:42:29;;;;;;;8.88;2.92;;;;;;;14.36;46.68;103504.63;10086544;28;20051;-67
2022/02/27 13:47:31;;;;;;;6.82;3.10;;;;;;;15.09;46.27;103496.81;10090450;28;20474;-67
2022/02/27 13:52:28;;;;;;;10.47;3.63;;;;;;;15.34;44.73;103498.63;10094323;28;20078;-67
2022/02/27 13:57:35;;;;;;;13.90;3.90;;;;;;;15.95;43.14;103496.66;10099559;28;20039;-67
2022/02/27 14:02:36;;;;;;;11.07;3.25;;;;;;;16.18;41.23;103484.88;10096910;28;20612;-68
2022/02/27 14:07:33;;;;;;;7.68;2.60;;;;;;;15.85;39.82;103491.19;10088820;28;20057;-68
2022/02/27 14:12:34;;;;;;;8.10;3.00;;;;;;;14.53;41.80;103489.47;10083946;28;20054;-67
2022/02/27 14:17:41;;;;;;;6.50;2.80;;;;;;;14.16;43.27;103486.19;10083601;28;20067;-67
2022/02/27 14:22:38;;;;;;;7.50;2.38;;;;;;;14.76;43.60;103481.75;10090931;28;20106;-67
2022/02/27 14:27:34;;;;;;;6.97;2.35;;;;;;;13.60;42.89;103476.78;10087038;28;20054;-67
2022/02/27 14:32:33;;;;;;;9.70;2.83;;;;;;;13.70;45.44;103483.38;10089632;28;20116;-67
2022/02/27 14:37:30;;;;;;;12.15;2.90;;;;;;;14.12;45.22;103465.84;10080267;28;20047;-68
2022/02/27 14:42:26;;;;;;;8.75;2.50;;;;;;;14.46;43.09;103455.91;10090949;28;20070;-67
2022/02/27 14:47:22;;;;;;;7.50;2.83;;;;;;;13.81;44.76;103446.56;10094948;28;20102;-68
2022/02/27 14:52:19;;;;;;;8.48;2.97;;;;;;;14.63;42.03;103449.28;10096801;28;20094;-64
2022/02/27 14:57:16;;;;;;;7.63;1.90;;;;;;;14.59;42.65;103437.19;10107259;28;20077;-64
2022/02/27 15:02:13;;;;;;;8.30;2.15;;;;;;;14.91;43.53;103440.38;10089107;28;20126;-67
2022/02/27 15:07:09;;;;;;;8.05;2.72;;;;;;;14.28;41.80;103437.22;10098932;28;20393;-66
2022/02/27 15:12:07;;;;;;;7.13;2.28;;;;;;;13.42;41.85;103430.53;10097242;28;20076;-67
2022/02/27 15:17:04;;;;;;;8.73;2.88;;;;;;;13.38;43.27;103424.75;10078654;28;20153;-67
2022/02/27 15:22:00;;;;;;;9.60;2.47;;;;;;;12.76;42.06;103423.66;10095129;28;20047;-67
2022/02/27 15:26:57;;;;;;;9.15;2.63;;;;;;;12.36;42.66;103425.06;10094267;28;20050;-68
2022/02/27 15:31:54;;;;;;;6.70;2.30;;;;;;;11.72;44.47;103419.56;10088011;28;20390;-68
2022/02/27 15:36:51;;;;;;;7.10;2.13;;;;;;;11.62;45.88;103419.47;10090306;28;20039;-68
2022/02/27 15:41:48;;;;;;;9.73;2.40;;;;;;;11.05;48.92;103416.13;10091597;28;20047;-68
2022/02/27 15:46:44;;;;;;;8.80;3.00;;;;;;;10.59;51.70;103418.25;10106917;28;20110;-68
2022/02/27 15:51:41;;;;;;;8.30;2.80;;;;;;;10.24;59.84;103416.63;10092520;28;20094;-67
2022/02/27 15:56:37;;;;;;;9.85;2.55;;;;;;;10.00;62.74;103404.19;10089065;28;20043;-68
2022/02/27 16:01:34;;;;;;;11.38;2.97;;;;;;;9.88;69.83;103413.28;10094631;28;20142;-68
2022/02/27 16:06:31;;;;;;;7.72;2.50;;;;;;;9.89;67.21;103403.19;10082319;28;20543;-68
2022/02/27 16:11:28;;;;;;;9.48;3.08;;;;;;;9.76;69.36;103404.34;10086509;28;20465;-68
2022/02/27 16:16:24;;;;;;;9.52;3.30;;;;;;;9.54;70.92;103400.66;10093962;28;20058;-67
2022/02/27 16:21:21;;;;;;;12.60;4.40;;;;;;;9.34;74.74;103396.47;10099719;28;20039;-69
2022/02/27 16:26:17;;;;;;;7.40;2.67;;;;;;;9.06;74.06;103400.84;10077386;28;20138;-69
2022/02/27 16:31:15;;;;;;;10.15;3.13;;;;;;;8.89;74.26;103394.50;10105701;28;20748;-68
2022/02/27 16:36:12;;;;;;;10.98;3.53;;;;;;;8.88;76.88;103401.00;10094676;28;20525;-69
2022/02/27 16:41:09;;;;;;;8.23;2.90;;;;;;;8.63;78.16;103402.13;10088587;28;20680;-69
2022/02/27 16:46:05;;;;;;;7.53;2.47;;;;;;;8.62;77.47;103400.47;10083528;28;20473;-69
2022/02/27 16:51:03;;;;;;;11.07;2.90;;;;;;;8.40;83.46;103418.47;10083382;28;20429;-69
2022/02/27 16:55:59;;;;;;;8.18;2.83;;;;;;;8.26;90.01;103417.84;10086109;28;20454;-69
2022/02/27 17:00:56;;;;;;;11.25;3.00;;;;;;;8.17;87.54;103419.28;10093244;28;20050;-69
2022/02/27 17:05:55;;;;;;;12.00;3.88;;;;;;;7.88;91.38;103421.00;10096637;28;20074;-69
2022/02/27 17:10:53;;;;;;;13.13;3.50;;;;;;;7.64;96.25;103420.94;10090640;28;20077;-69
2022/02/27 17:15:50;;;;;;;10.18;3.58;;;;;;;7.55;99.47;103428.59;10081831;28;20071;-69
2022/02/27 17:20:47;;;;;;;8.02;3.00;;;;;;;7.46;100.00;103429.16;10083638;28;20070;-68
2022/02/27 17:25:44;;;;;;;8.23;3.13;;;;;;;7.27;100.00;103442.81;10083936;28;20089;-69
2022/02/27 17:30:41;;;;;;;11.00;3.38;;;;;;;7.09;100.00;103450.97;10083121;28;20047;-69
2022/02/27 17:35:37;;;;;;;9.65;4.20;;;;;;;7.12;100.00;103453.25;10083048;28;20083;-69
2022/02/27 17:40:34;;;;;;;8.43;3.50;;;;;;;7.02;100.00;103450.22;10077339;28;20537;-69
2022/02/27 17:45:30;;;;;;;9.98;3.25;;;;;;;6.86;100.00;103447.03;10099218;28;20802;-69
2022/02/27 17:50:28;;;;;;;12.35;3.65;;;;;;;6.73;100.00;103444.50;10081074;28;20043;-69
2022/02/27 17:55:24;;;;;;;9.13;3.60;;;;;;;6.65;100.00;103450.19;10083930;28;20047;-69
2022/02/27 18:00:24;;;;;;;7.25;3.30;;;;;;;6.58;100.00;103449.44;10074339;28;20780;-69
2022/02/27 18:05:20;;;;;;;11.25;4.13;;;;;;;6.44;100.00;103449.56;10084807;28;20134;-69
2022/02/27 18:10:17;;;;;;;8.35;3.50;;;;;;;6.34;100.00;103453.84;10098572;28;20638;-69
2022/02/27 18:15:21;;;;;;;11.45;4.53;;;;;;;6.19;100.00;103451.44;10084378;28;20059;-69
2022/02/27 18:20:19;;;;;;;12.30;3.90;;;;;;;6.07;100.00;103444.00;10104964;28;20091;-69
2022/02/27 18:25:17;;;;;;;7.95;3.60;;;;;;;5.96;100.00;103442.00;10080778;28;20513;-69
2022/02/27 18:30:14;;;;;;;13.38;3.70;;;;;;;5.88;100.00;103450.41;10093060;28;20046;-69
2022/02/27 18:35:11;;;;;;;12.82;4.00;;;;;;;5.73;100.00;103447.13;10090716;28;20051;-69
2022/02/27 18:40:11;;;;;;;11.23;4.47;;;;;;;5.63;100.00;103437.59;10081272;28;20545;-69
2022/02/27 18:45:09;;;;;;;9.50;3.83;;;;;;;5.55;100.00;103440.56;10075491;28;20047;-68
2022/02/27 18:50:08;;;;;;;13.55;4.40;;;;;;;5.51;100.00;103455.63;10104233;28;20113;-68
2022/02/27 18:55:07;;;;;;;7.70;3.72;;;;;;;5.31;100.00;103452.16;10074749;28;20047;-69
2022/02/27 19:00:06;;;;;;;11.40;3.72;;;;;;;5.13;100.00;103447.41;10072191;28;20093;-69
2022/02/27 19:05:05;;;;;;;10.52;3.40;;;;;;;5.27;100.00;103449.88;10076260;28;20047;-69
2022/02/27 19:10:04;;;;;;;11.93;4.78;;;;;;;5.27;100.00;103441.75;10111654;28;20047;-69
2022/02/27 19:15:00;;;;;;;10.57;3.50;;;;;;;5.13;100.00;103452.84;10083763;28;20047;-70
2022/02/27 19:19:57;;;;;;;7.93;3.55;;;;;;;5.03;100.00;103442.44;10072009;28;20059;-69
2022/02/27 19:24:53;;;;;;;11.23;5.50;;;;;;;5.00;100.00;103437.47;10082702;28;20087;-69
2022/02/27 19:29:50;;;;;;;11.93;3.85;;;;;;;5.00;100.00;103437.47;10093908;28;20047;-70
2022/02/27 19:34:49;;;;;;;7.20;3.47;;;;;;;4.80;100.00;103443.78;10081646;28;20074;-68
2022/02/27 19:39:46;;;;;;;10.02;3.90;;;;;;;4.77;100.00;103430.63;10079921;28;20043;-70
2022/02/27 19:44:44;;;;;;;13.75;3.95;;;;;;;4.69;100.00;103424.59;10077960;28;20059;-69
2022/02/27 19:49:42;;;;;;;7.30;3.13;;;;;;;4.63;100.00;103437.13;10077532;28;20047;-69
2022/02/27 19:54:39;;;;;;;11.45;4.10;;;;;;;4.52;100.00;103435.06;10080935;28;20067;-68
2022/02/27 19:59:36;;;;;;;8.50;3.45;;;;;;;4.53;100.00;103431.31;10085221;28;20082;-67
2022/02/27 20:04:32;;;;;;;10.75;3.83;;;;;;;4.47;100.00;103437.56;10085805;28;20106;-69
2022/02/27 20:14:49;;;;;;;9.50;3.70;;;;;;;4.42;100.00;103430.91;10080153;28;20086;-68
2022/02/27 20:19:46;;;;;;;8.98;4.32;;;;;;;4.15;100.00;103435.50;10091962;28;20083;-68
2022/02/27 20:24:42;;;;;;;14.60;4.53;;;;;;;4.21;100.00;103428.44;10082161;28;20074;-68
2022/02/27 20:29:39;;;;;;;10.63;4.30;;;;;;;4.39;100.00;103431.34;10078980;28;20047;-67
2022/02/27 20:34:35;;;;;;;10.55;4.32;;;;;;;4.32;100.00;103446.75;10084805;28;20102;-67
2022/02/27 20:39:32;;;;;;;11.25;4.15;;;;;;;4.27;100.00;103443.84;10082444;28;20043;-69
2022/02/27 20:44:28;;;;;;;11.63;4.00;;;;;;;4.13;100.00;103448.44;10077884;28;20425;-69
2022/02/27 20:49:25;;;;;;;10.27;4.90;;;;;;;4.09;100.00;103446.34;10076282;28;20553;-68
2022/02/27 20:54:22;;;;;;;11.82;4.35;;;;;;;4.00;100.00;103438.41;10075506;28;20130;-68
2022/02/27 20:59:18;;;;;;;10.50;4.60;;;;;;;3.98;100.00;103436.94;10088327;28;20083;-68
2022/02/27 21:04:15;;;;;;;11.52;4.15;;;;;;;3.91;100.00;103436.13;10082637;28;20071;-68
2022/02/27 21:09:11;;;;;;;13.70;4.88;;;;;;;3.72;100.00;103435.03;10075249;28;20105;-69
2022/02/27 21:14:08;;;;;;;11.50;4.65;;;;;;;3.77;100.00;103432.56;10074724;28;20102;-68
2022/02/27 21:19:07;;;;;;;12.10;4.47;;;;;;;3.87;100.00;103432.97;10080427;28;20047;-69
2022/02/27 21:24:04;;;;;;;16.63;5.40;;;;;;;3.90;100.00;103438.00;10078713;28;20150;-68
2022/02/27 21:29:00;;;;;;;12.15;4.47;;;;;;;3.73;100.00;103431.28;10111408;28;20117;-70
2022/02/27 21:33:57;;;;;;;10.55;4.85;;;;;;;3.65;100.00;103434.19;10100179;28;20453;-68
2022/02/27 21:38:54;;;;;;;13.90;5.82;;;;;;;3.56;100.00;103437.06;10092113;28;20058;-69
2022/02/27 21:43:50;;;;;;;14.25;5.70;;;;;;;3.51;100.00;103441.44;10087336;28;20055;-68
2022/02/27 21:49:07;;;;;;;15.80;5.43;;;;;;;3.29;100.00;103456.94;10081563;28;20051;-68
2022/02/27 21:54:03;;;;;;;14.23;6.13;;;;;;;3.33;100.00;103458.22;10083878;28;20111;-69
2022/02/27 21:59:00;;;;;;;12.82;5.75;;;;;;;3.26;100.00;103452.78;10083048;28;20628;-68
2022/02/27 22:03:58;;;;;;;13.25;5.43;;;;;;;3.06;100.00;103441.88;10075933;28;20101;-68
2022/02/27 22:08:55;;;;;;;14.40;6.72;;;;;;;3.15;100.00;103443.38;10081438;28;20548;-68
2022/02/27 22:13:51;;;;;;;13.32;5.85;;;;;;;3.05;100.00;103437.50;10093059;28;20130;-68
2022/02/27 22:18:47;;;;;;;16.42;5.97;;;;;;;3.03;100.00;103431.47;10077990;28;20076;-69
2022/02/27 22:23:44;;;;;;;17.67;6.90;;;;;;;2.96;100.00;103436.00;10085161;28;20462;-68
2022/02/27 22:28:41;;;;;;;16.00;7.07;;;;;;;2.95;100.00;103437.06;10078051;28;20465;-68
2022/02/27 22:33:37;;;;;;;16.05;6.75;;;;;;;2.89;100.00;103437.84;10086913;28;20043;-68
2022/02/27 22:38:35;;;;;;;15.68;7.38;;;;;;;2.90;100.00;103442.19;10087050;28;20504;-68
2022/02/27 22:43:31;;;;;;;17.02;8.02;;;;;;;2.84;100.00;103443.03;10082785;28;20105;-68
2022/02/27 22:48:28;;;;;;;19.85;8.48;;;;;;;2.78;100.00;103446.50;10080787;28;20378;-68